Time;durP1;ratioP1;P1;durP2;ratioP2;P2;SDS_P1;SDS_P2;PMS_P1;PMS_P2;Temp;Humidity;BMP_temperature;BMP_pressure;BME280_temperature;BME280_humidity;BME280_pressure;Samples;Min_cycle;Max_cycle;Signal;HPM_P1;HPM_P2
2022/11/29 00:01:05;;;;;;;24.23;17.63;;;;;;;;;;4973377;28;20042;-77
2022/11/29 00:03:32;;;;;;;24.55;17.92;;;;;;;;;;4968003;28;20035;-77
2022/11/29 00:06:04;;;;;;;27.33;17.92;;;;;;;;;;4967021;28;20069;-77
2022/11/29 00:08:29;;;;;;;24.42;18.08;;;;;;;;;;4970224;28;20030;-77
2022/11/29 00:10:55;;;;;;;24.50;17.60;;;;;;;;;;4972528;28;20035;-77
2022/11/29 00:13:21;;;;;;;23.83;17.83;;;;;;;;;;4970171;28;20039;-77
2022/11/29 00:15:46;;;;;;;21.55;17.33;;;;;;;;;;4972840;28;20041;-78
2022/11/29 00:18:12;;;;;;;23.63;18.15;;;;;;;;;;4968410;28;20089;-78
2022/11/29 00:20:38;;;;;;;23.75;17.60;;;;;;;;;;4973346;28;20097;-77
2022/11/29 00:23:04;;;;;;;23.55;18.55;;;;;;;;;;4971584;28;20031;-77
2022/11/29 00:25:30;;;;;;;27.02;18.77;;;;;;;;;;4969150;28;20102;-77
2022/11/29 00:27:55;;;;;;;23.50;17.38;;;;;;;;;;4969365;28;20038;-77
2022/11/29 00:30:21;;;;;;;21.95;18.17;;;;;;;;;;4968972;28;20066;-77
2022/11/29 00:32:47;;;;;;;24.20;19.08;;;;;;;;;;4974343;28;20035;-77
2022/11/29 00:35:13;;;;;;;21.95;18.70;;;;;;;;;;4972374;28;20125;-77
2022/11/29 00:37:38;;;;;;;22.80;17.75;;;;;;;;;;4974952;28;20035;-77
2022/11/29 00:40:05;;;;;;;21.92;18.10;;;;;;;;;;4974691;28;20035;-77
2022/11/29 00:42:31;;;;;;;25.73;18.58;;;;;;;;;;4986890;28;20031;-77
2022/11/29 00:44:56;;;;;;;24.85;18.38;;;;;;;;;;4977966;28;20110;-77
2022/11/29 00:47:22;;;;;;;25.40;18.65;;;;;;;;;;4956705;28;20066;-77
2022/11/29 00:49:47;;;;;;;22.17;18.02;;;;;;;;;;4971346;28;20101;-77
2022/11/29 00:52:13;;;;;;;22.90;17.65;;;;;;;;;;4970276;28;20045;-77
2022/11/29 00:54:39;;;;;;;22.88;18.58;;;;;;;;;;4974536;28;20031;-77
2022/11/29 00:57:04;;;;;;;22.77;18.80;;;;;;;;;;4966127;28;20058;-77
2022/11/29 00:59:30;;;;;;;26.08;19.33;;;;;;;;;;4967561;28;20035;-77
2022/11/29 01:01:55;;;;;;;23.17;18.20;;;;;;;;;;4964252;28;20027;-77
2022/11/29 01:04:21;;;;;;;23.65;18.98;;;;;;;;;;4969088;28;20046;-77
2022/11/29 01:06:51;;;;;;;27.02;18.52;;;;;;;;;;4963787;28;20034;-77
2022/11/29 01:09:17;;;;;;;25.08;19.33;;;;;;;;;;4965940;28;20038;-77
2022/11/29 01:11:43;;;;;;;23.58;18.38;;;;;;;;;;4967187;28;20042;-77
2022/11/29 01:14:10;;;;;;;25.85;19.40;;;;;;;;;;4969431;28;20046;-77
2022/11/29 01:16:36;;;;;;;23.67;18.65;;;;;;;;;;4965499;28;20058;-77
2022/11/29 01:19:02;;;;;;;25.10;19.75;;;;;;;;;;4967241;28;20645;-77
2022/11/29 01:21:29;;;;;;;24.50;18.88;;;;;;;;;;4967000;28;20498;-78
2022/11/29 01:23:55;;;;;;;24.55;19.75;;;;;;;;;;4964115;28;20026;-75
2022/11/29 01:26:27;;;;;;;23.50;18.33;;;;;;;;;;4967662;28;20049;-77
2022/11/29 01:28:54;;;;;;;28.92;18.88;;;;;;;;;;4967550;28;20046;-76
2022/11/29 01:31:25;;;;;;;26.63;18.25;;;;;;;;;;4967013;28;20784;-77
2022/11/29 01:33:56;;;;;;;22.00;18.15;;;;;;;;;;4991627;28;20034;-76
2022/11/29 01:36:22;;;;;;;27.02;19.88;;;;;;;;;;4969212;28;20153;-76
2022/11/29 01:38:47;;;;;;;25.63;19.83;;;;;;;;;;4970003;28;20054;-76
2022/11/29 01:41:16;;;;;;;25.08;18.50;;;;;;;;;;4966614;28;20458;-76
2022/11/29 01:44:02;;;;;;;22.13;17.67;;;;;;;;;;4968894;28;20043;-76
2022/11/29 01:46:34;;;;;;;24.15;18.80;;;;;;;;;;4968122;28;20042;-76
2022/11/29 01:49:09;;;;;;;28.02;19.50;;;;;;;;;;4969651;28;20039;-76
2022/11/29 01:51:37;;;;;;;24.40;18.98;;;;;;;;;;4963582;28;20676;-76
2022/11/29 01:54:04;;;;;;;21.00;17.02;;;;;;;;;;4952444;28;20426;-76
2022/11/29 01:56:32;;;;;;;23.48;18.25;;;;;;;;;;4966663;28;20031;-76
2022/11/29 01:59:01;;;;;;;25.85;18.48;;;;;;;;;;4972175;28;20083;-76
2022/11/29 02:01:27;;;;;;;30.48;19.08;;;;;;;;;;4973105;28;20037;-76
2022/11/29 02:03:53;;;;;;;21.30;18.58;;;;;;;;;;4972556;28;20130;-76
2022/11/29 02:06:18;;;;;;;24.55;18.48;;;;;;;;;;4971916;28;20186;-77
2022/11/29 02:08:44;;;;;;;25.52;18.67;;;;;;;;;;4972533;28;20035;-76
2022/11/29 02:11:35;;;;;;;24.30;17.75;;;;;;;;;;4973355;28;20117;-76
2022/11/29 02:14:32;;;;;;;26.95;17.88;;;;;;;;;;4959967;28;20054;-76
2022/11/29 02:17:09;;;;;;;23.70;17.70;;;;;;;;;;4966337;28;20652;-76
2022/11/29 02:20:05;;;;;;;21.50;17.23;;;;;;;;;;4971519;28;20042;-76
2022/11/29 02:22:33;;;;;;;22.70;16.75;;;;;;;;;;4970468;28;20034;-76
2022/11/29 02:25:37;;;;;;;26.55;17.45;;;;;;;;;;4967486;28;20066;-76
2022/11/29 02:28:40;;;;;;;24.17;17.83;;;;;;;;;;4973537;28;20062;-76
2022/11/29 02:31:50;;;;;;;22.40;17.13;;;;;;;;;;4971764;28;20082;-76
2022/11/29 02:34:54;;;;;;;28.45;17.95;;;;;;;;;;4971562;28;20034;-76
2022/11/29 02:37:47;;;;;;;25.55;18.85;;;;;;;;;;4935011;29;20067;-76
2022/11/29 02:40:27;;;;;;;25.63;18.77;;;;;;;;;;4974291;28;20483;-77
2022/11/29 02:43:11;;;;;;;23.70;17.88;;;;;;;;;;4967475;28;20415;-76
2022/11/29 02:45:53;;;;;;;27.50;19.50;;;;;;;;;;4970424;28;20047;-76
2022/11/29 02:48:28;;;;;;;25.13;18.95;;;;;;;;;;4970952;28;20039;-76
2022/11/29 02:51:16;;;;;;;24.27;18.85;;;;;;;;;;4969720;28;20042;-76
2022/11/29 02:54:27;;;;;;;29.17;18.25;;;;;;;;;;4969552;28;20035;-76
2022/11/29 02:57:20;;;;;;;23.17;17.45;;;;;;;;;;4969488;28;20054;-76
2022/11/29 03:00:01;;;;;;;21.20;18.30;;;;;;;;;;4963215;28;20035;-76
2022/11/29 03:02:48;;;;;;;26.75;18.80;;;;;;;;;;4969381;28;20030;-76
2022/11/29 03:05:35;;;;;;;26.00;17.75;;;;;;;;;;4964999;28;20035;-76
2022/11/29 03:08:39;;;;;;;26.80;18.80;;;;;;;;;;4958716;28;20536;-77
2022/11/29 03:11:25;;;;;;;23.98;18.75;;;;;;;;;;4970426;28;20061;-77
2022/11/29 03:14:19;;;;;;;21.45;16.48;;;;;;;;;;4971517;28;20478;-76
2022/11/29 03:16:47;;;;;;;22.77;17.38;;;;;;;;;;4970381;28;20049;-77
2022/11/29 03:19:40;;;;;;;22.20;17.63;;;;;;;;;;4969961;28;20096;-77
2022/11/29 03:22:40;;;;;;;26.17;18.08;;;;;;;;;;4972344;28;20514;-79
2022/11/29 03:25:08;;;;;;;24.92;18.30;;;;;;;;;;4972130;28;20042;-76
2022/11/29 03:27:40;;;;;;;30.65;19.38;;;;;;;;;;4970505;28;20042;-76
2022/11/29 03:30:10;;;;;;;28.73;18.05;;;;;;;;;;4971461;28;20050;-76
2022/11/29 03:32:57;;;;;;;24.30;18.50;;;;;;;;;;4971647;28;20034;-77
2022/11/29 03:35:31;;;;;;;23.38;18.15;;;;;;;;;;4973298;28;20446;-75
2022/11/29 03:38:15;;;;;;;25.45;18.40;;;;;;;;;;4967882;28;20039;-76
2022/11/29 03:40:50;;;;;;;23.85;18.80;;;;;;;;;;4971412;28;20593;-75
2022/11/29 03:43:21;;;;;;;30.35;19.38;;;;;;;;;;4970581;28;20041;-75
2022/11/29 03:46:01;;;;;;;22.33;18.23;;;;;;;;;;4973841;28;20095;-76
2022/11/29 03:48:36;;;;;;;18.52;16.33;;;;;;;;;;4970847;28;20650;-75
2022/11/29 03:51:23;;;;;;;23.83;17.08;;;;;;;;;;4971614;28;20491;-75
2022/11/29 03:54:08;;;;;;;20.60;16.08;;;;;;;;;;4980030;28;20043;-75
2022/11/29 03:56:36;;;;;;;21.08;15.88;;;;;;;;;;4974301;28;20038;-76
2022/11/29 03:59:26;;;;;;;18.23;15.85;;;;;;;;;;4973707;28;20045;-76
2022/11/29 04:02:19;;;;;;;18.23;15.23;;;;;;;;;;4997597;28;20077;-76
2022/11/29 04:05:34;;;;;;;18.60;15.20;;;;;;;;;;4973258;28;20045;-76
2022/11/29 04:08:21;;;;;;;17.80;15.90;;;;;;;;;;4969758;28;20122;-76
2022/11/29 04:11:21;;;;;;;20.00;15.68;;;;;;;;;;4972655;28;20035;-75
2022/11/29 04:14:13;;;;;;;25.15;17.10;;;;;;;;;;4970782;28;20043;-76
2022/11/29 04:17:06;;;;;;;20.52;16.77;;;;;;;;;;4972020;28;20147;-75
2022/11/29 04:19:38;;;;;;;18.45;16.15;;;;;;;;;;4970906;28;20035;-76
2022/11/29 04:22:30;;;;;;;21.95;16.80;;;;;;;;;;4972467;28;20039;-75
2022/11/29 04:25:25;;;;;;;22.25;17.10;;;;;;;;;;4962277;28;20836;-75
2022/11/29 04:28:22;;;;;;;21.48;17.33;;;;;;;;;;4971590;28;20034;-75
2022/11/29 04:31:18;;;;;;;19.40;17.15;;;;;;;;;;4970316;28;20093;-76
2022/11/29 04:34:20;;;;;;;20.35;15.30;;;;;;;;;;4972093;28;20398;-76
2022/11/29 04:37:23;;;;;;;19.80;16.45;;;;;;;;;;4968353;28;20030;-76
2022/11/29 04:39:55;;;;;;;20.30;16.27;;;;;;;;;;4971152;28;20569;-75
2022/11/29 04:42:54;;;;;;;20.48;16.50;;;;;;;;;;4966841;28;20033;-75
2022/11/29 04:45:22;;;;;;;29.55;18.95;;;;;;;;;;4970577;28;20039;-75
2022/11/29 04:48:02;;;;;;;25.03;16.77;;;;;;;;;;4971481;28;20035;-76
2022/11/29 04:50:34;;;;;;;26.25;18.75;;;;;;;;;;4968220;28;20306;-76
2022/11/29 04:53:18;;;;;;;33.38;20.33;;;;;;;;;;4969347;28;20031;-76
2022/11/29 04:56:14;;;;;;;28.40;20.45;;;;;;;;;;4971732;28;20494;-76
2022/11/29 04:59:16;;;;;;;31.85;18.42;;;;;;;;;;4970544;28;20040;-76
2022/11/29 05:02:30;;;;;;;28.60;19.45;;;;;;;;;;4965249;28;20508;-76
2022/11/29 05:05:20;;;;;;;28.00;16.90;;;;;;;;;;4960456;28;20050;-75
2022/11/29 05:08:11;;;;;;;16.15;14.05;;;;;;;;;;4994597;28;20039;-75
2022/11/29 05:11:08;;;;;;;20.77;14.85;;;;;;;;;;4965530;28;20471;-77
2022/11/29 05:13:56;;;;;;;15.13;13.55;;;;;;;;;;4970373;28;20039;-78
2022/11/29 05:16:46;;;;;;;21.77;15.73;;;;;;;;;;4970835;28;20019;-76
2022/11/29 05:19:49;;;;;;;16.50;14.80;;;;;;;;;;4967105;28;20581;-77
2022/11/29 05:22:24;;;;;;;19.33;15.18;;;;;;;;;;4981822;28;20034;-77
2022/11/29 05:24:52;;;;;;;19.45;14.77;;;;;;;;;;4985301;28;20039;-77
2022/11/29 05:27:43;;;;;;;20.50;15.53;;;;;;;;;;4981109;28;20047;-77
2022/11/29 05:30:08;;;;;;;17.00;14.05;;;;;;;;;;4969295;28;20081;-77
2022/11/29 05:32:44;;;;;;;16.83;14.52;;;;;;;;;;4969492;28;20058;-77
2022/11/29 05:35:27;;;;;;;16.75;13.90;;;;;;;;;;4966156;28;20039;-77
2022/11/29 05:38:26;;;;;;;15.38;13.13;;;;;;;;;;4968212;28;20034;-76
2022/11/29 05:41:15;;;;;;;18.00;12.90;;;;;;;;;;4968188;28;20039;-76
2022/11/29 05:43:53;;;;;;;16.13;13.70;;;;;;;;;;4969971;28;20072;-76
2022/11/29 05:46:28;;;;;;;16.40;13.30;;;;;;;;;;4964152;28;20066;-76
2022/11/29 05:49:03;;;;;;;15.68;13.68;;;;;;;;;;4963303;28;20039;-76
2022/11/29 05:51:45;;;;;;;17.23;14.20;;;;;;;;;;4962238;28;20665;-76
2022/11/29 05:54:26;;;;;;;18.90;14.27;;;;;;;;;;4967649;28;20616;-76
2022/11/29 05:57:02;;;;;;;21.05;15.70;;;;;;;;;;4967664;28;20557;-76
2022/11/29 05:59:28;;;;;;;17.58;15.35;;;;;;;;;;4966081;28;20030;-76
2022/11/29 06:02:05;;;;;;;21.90;17.38;;;;;;;;;;4964556;28;20062;-76
2022/11/29 06:04:40;;;;;;;26.17;18.25;;;;;;;;;;4961788;28;20035;-77
2022/11/29 06:07:16;;;;;;;21.02;17.00;;;;;;;;;;4966980;28;20535;-76
2022/11/29 06:09:54;;;;;;;28.92;18.83;;;;;;;;;;4964307;28;20499;-76
2022/11/29 06:12:23;;;;;;;23.75;18.92;;;;;;;;;;4966287;28;20054;-76
2022/11/29 06:14:55;;;;;;;28.27;19.80;;;;;;;;;;4965537;28;20031;-77
2022/11/29 06:17:31;;;;;;;27.85;18.65;;;;;;;;;;4966483;28;20059;-77
2022/11/29 06:20:23;;;;;;;28.15;17.92;;;;;;;;;;4965735;28;20035;-76
2022/11/29 06:22:57;;;;;;;24.10;17.00;;;;;;;;;;4958553;28;20035;-76
2022/11/29 06:25:46;;;;;;;24.67;17.85;;;;;;;;;;4964743;28;20134;-76
2022/11/29 06:28:35;;;;;;;23.55;18.45;;;;;;;;;;4965846;28;20070;-76
2022/11/29 06:31:22;;;;;;;;;;;;;;;;;;4967181;28;20118;-76
2022/11/29 06:34:10;;;;;;;17.75;14.15;;;;;;;;;;4957224;28;20098;-76
2022/11/29 06:36:47;;;;;;;15.98;14.27;;;;;;;;;;4965723;28;20026;-76
2022/11/29 06:39:13;;;;;;;21.60;14.60;;;;;;;;;;4964762;28;20642;-76
2022/11/29 06:41:38;;;;;;;23.48;14.52;;;;;;;;;;4965488;28;20026;-76
2022/11/29 06:44:05;;;;;;;20.52;14.40;;;;;;;;;;4969392;28;20085;-76
2022/11/29 06:46:46;;;;;;;19.55;14.45;;;;;;;;;;4971154;28;20038;-76
2022/11/29 06:49:48;;;;;;;15.13;13.52;;;;;;;;;;4968139;28;20402;-76
2022/11/29 06:52:28;;;;;;;21.75;14.27;;;;;;;;;;4963519;28;20490;-76
2022/11/29 06:55:04;;;;;;;18.33;14.60;;;;;;;;;;4970214;28;20053;-76
2022/11/29 06:57:35;;;;;;;19.60;14.35;;;;;;;;;;4965319;28;20092;-76
2022/11/29 07:00:00;;;;;;;19.92;14.73;;;;;;;;;;4970081;28;20474;-76
2022/11/29 07:03:03;;;;;;;21.67;14.65;;;;;;;;;;4971400;28;20031;-76
2022/11/29 07:05:30;;;;;;;23.02;14.57;;;;;;;;;;4965599;28;20038;-76
2022/11/29 07:08:00;;;;;;;16.65;13.75;;;;;;;;;;4969864;28;20695;-77
2022/11/29 07:10:29;;;;;;;20.30;14.60;;;;;;;;;;4971412;28;20115;-76
2022/11/29 07:12:55;;;;;;;18.70;14.55;;;;;;;;;;4968798;28;20522;-76
2022/11/29 07:15:22;;;;;;;26.48;15.90;;;;;;;;;;4967971;28;20098;-77
2022/11/29 07:18:20;;;;;;;26.75;17.15;;;;;;;;;;4969598;28;20034;-76
2022/11/29 07:20:51;;;;;;;25.45;18.15;;;;;;;;;;4970934;28;20063;-76
2022/11/29 07:23:42;;;;;;;26.75;18.40;;;;;;;;;;4965040;28;20031;-76
2022/11/29 07:26:17;;;;;;;28.38;19.05;;;;;;;;;;4970378;28;20038;-76
2022/11/29 07:29:23;;;;;;;26.10;17.40;;;;;;;;;;4965062;28;20451;-76
2022/11/29 07:32:12;;;;;;;26.45;17.45;;;;;;;;;;4964912;28;20049;-76
2022/11/29 07:34:50;;;;;;;27.83;17.35;;;;;;;;;;4970943;28;20043;-76
2022/11/29 07:37:41;;;;;;;33.30;19.43;;;;;;;;;;4969562;28;20042;-76
2022/11/29 07:40:40;;;;;;;35.08;19.27;;;;;;;;;;4968696;28;20729;-76
2022/11/29 07:43:29;;;;;;;29.30;19.75;;;;;;;;;;4967875;28;20047;-76
2022/11/29 07:45:56;;;;;;;30.37;19.27;;;;;;;;;;4970582;28;20081;-76
2022/11/29 07:48:21;;;;;;;35.60;20.50;;;;;;;;;;4970185;28;20494;-77
2022/11/29 07:50:47;;;;;;;38.83;19.85;;;;;;;;;;4962309;28;20125;-76
2022/11/29 07:53:18;;;;;;;32.75;20.42;;;;;;;;;;4968944;28;20031;-76
2022/11/29 07:55:44;;;;;;;38.15;20.10;;;;;;;;;;4969139;28;20045;-76
2022/11/29 07:58:11;;;;;;;35.92;19.75;;;;;;;;;;4965676;28;20112;-77
2022/11/29 08:00:38;;;;;;;37.42;20.63;;;;;;;;;;4968616;28;20031;-76
2022/11/29 08:03:04;;;;;;;38.75;20.15;;;;;;;;;;4969889;28;20027;-76
2022/11/29 08:05:30;;;;;;;42.00;20.80;;;;;;;;;;4969044;28;20141;-77
2022/11/29 08:07:55;;;;;;;40.05;19.77;;;;;;;;;;4969880;28;20035;-77
2022/11/29 08:10:21;;;;;;;35.22;21.42;;;;;;;;;;4970342;28;20030;-76
2022/11/29 08:12:49;;;;;;;54.85;21.77;;;;;;;;;;4967734;28;20027;-77
2022/11/29 08:15:17;;;;;;;43.08;22.95;;;;;;;;;;4968573;28;20026;-77
2022/11/29 08:17:43;;;;;;;38.90;20.60;;;;;;;;;;4969919;28;20147;-77
2022/11/29 08:20:10;;;;;;;51.38;22.85;;;;;;;;;;4969640;28;20042;-76
2022/11/29 08:22:36;;;;;;;52.67;23.02;;;;;;;;;;4967743;28;20054;-76
2022/11/29 08:25:03;;;;;;;38.13;21.00;;;;;;;;;;4969888;28;20081;-77
2022/11/29 08:27:30;;;;;;;46.58;21.65;;;;;;;;;;4969407;28;20042;-76
2022/11/29 08:29:55;;;;;;;46.40;22.23;;;;;;;;;;4968470;28;20039;-77
2022/11/29 08:32:21;;;;;;;47.03;21.27;;;;;;;;;;4965056;28;20030;-77
2022/11/29 08:34:46;;;;;;;46.35;21.27;;;;;;;;;;4969832;28;20490;-77
2022/11/29 08:37:12;;;;;;;48.40;21.83;;;;;;;;;;4969772;28;20113;-76
2022/11/29 08:39:38;;;;;;;42.58;20.20;;;;;;;;;;4967312;28;20047;-76
2022/11/29 08:42:03;;;;;;;44.30;21.08;;;;;;;;;;4969101;28;20039;-77
2022/11/29 08:44:29;;;;;;;48.35;21.88;;;;;;;;;;4969921;28;20034;-76
2022/11/29 08:49:59;;;;;;;38.08;19.08;;;;;;;;;;4964119;28;20051;-77
2022/11/29 08:55:08;;;;;;;41.70;19.23;;;;;;;;;;4968058;28;20043;-76
2022/11/29 08:57:34;;;;;;;40.85;19.40;;;;;;;;;;4967379;28;20049;-75
2022/11/29 09:00:00;;;;;;;48.03;20.25;;;;;;;;;;4969169;28;20067;-77
2022/11/29 09:02:25;;;;;;;30.88;18.50;;;;;;;;;;4968885;28;20041;-77
2022/11/29 09:04:51;;;;;;;38.50;17.85;;;;;;;;;;4964707;28;20098;-77
2022/11/29 09:07:16;;;;;;;46.88;20.15;;;;;;;;;;4967077;28;20038;-77
2022/11/29 09:09:42;;;;;;;39.22;19.73;;;;;;;;;;4969017;28;20111;-77
2022/11/29 09:12:07;;;;;;;41.10;20.67;;;;;;;;;;4966846;28;20439;-77
2022/11/29 09:14:33;;;;;;;42.80;20.50;;;;;;;;;;4964241;28;20039;-77
2022/11/29 09:17:00;;;;;;;42.92;20.88;;;;;;;;;;4964548;28;20402;-76
2022/11/29 09:19:26;;;;;;;45.55;21.75;;;;;;;;;;4968255;28;20114;-77
2022/11/29 09:21:52;;;;;;;42.20;19.88;;;;;;;;;;4966410;28;20026;-77
2022/11/29 09:24:19;;;;;;;42.33;21.30;;;;;;;;;;4965724;28;20097;-77
2022/11/29 09:26:47;;;;;;;43.65;22.55;;;;;;;;;;4968715;28;20109;-76
2022/11/29 09:29:15;;;;;;;50.55;23.65;;;;;;;;;;4968581;28;20117;-77
2022/11/29 09:31:41;;;;;;;50.53;23.42;;;;;;;;;;4965506;28;20142;-77
2022/11/29 09:34:07;;;;;;;41.75;20.60;;;;;;;;;;4964173;28;20046;-77
2022/11/29 09:36:32;;;;;;;36.42;19.63;;;;;;;;;;4968731;28;20047;-77
2022/11/29 09:39:01;;;;;;;36.28;18.73;;;;;;;;;;4964658;28;20038;-77
2022/11/29 09:41:52;;;;;;;30.25;16.88;;;;;;;;;;4967069;28;20117;-76
2022/11/29 09:44:45;;;;;;;30.92;17.65;;;;;;;;;;4967513;28;20037;-77
2022/11/29 09:47:49;;;;;;;28.95;17.33;;;;;;;;;;4963671;28;20038;-77
2022/11/29 09:50:41;;;;;;;26.73;16.33;;;;;;;;;;4967052;28;20030;-77
2022/11/29 09:53:42;;;;;;;28.08;15.63;;;;;;;;;;4966421;28;20065;-76
2022/11/29 09:56:17;;;;;;;26.58;14.98;;;;;;;;;;4944419;28;20050;-76
2022/11/29 09:58:56;;;;;;;22.80;15.57;;;;;;;;;;4966507;28;20130;-77
2022/11/29 10:01:30;;;;;;;23.45;15.20;;;;;;;;;;4967980;28;20081;-76
2022/11/29 10:04:07;;;;;;;19.08;13.55;;;;;;;;;;4968032;28;20066;-75
2022/11/29 10:06:37;;;;;;;19.45;14.13;;;;;;;;;;4961342;28;20034;-76
2022/11/29 10:09:12;;;;;;;22.77;15.52;;;;;;;;;;4966756;28;20081;-76
2022/11/29 10:12:11;;;;;;;22.63;14.63;;;;;;;;;;4968279;28;20111;-76
2022/11/29 10:14:52;;;;;;;;;;;;;;;;;;4961991;28;20059;-76
2022/11/29 10:17:31;;;;;;;24.75;16.17;;;;;;;;;;4962844;28;19914;-75
2022/11/29 10:20:02;;;;;;;;;;;;;;;;;;4969326;28;20074;-75
2022/11/29 10:22:44;;;;;;;31.50;18.65;;;;;;;;;;4967815;28;19937;-77
2022/11/29 10:25:20;;;;;;;27.30;18.95;;;;;;;;;;4971413;28;20039;-77
2022/11/29 10:27:45;;;;;;;24.95;17.60;;;;;;;;;;4969935;28;20038;-76
2022/11/29 10:30:16;;;;;;;30.10;17.70;;;;;;;;;;4969491;28;20043;-76
2022/11/29 10:32:44;;;;;;;26.67;17.85;;;;;;;;;;4968104;28;20050;-77
2022/11/29 10:35:14;;;;;;;32.75;19.92;;;;;;;;;;4971453;28;20069;-76
2022/11/29 10:37:40;;;;;;;40.28;19.73;;;;;;;;;;4971070;28;20034;-76
2022/11/29 10:40:13;;;;;;;33.15;20.08;;;;;;;;;;4968444;28;20039;-76
2022/11/29 10:42:48;;;;;;;36.95;20.70;;;;;;;;;;4968514;28;20485;-76
2022/11/29 10:45:22;;;;;;;35.28;21.42;;;;;;;;;;4971457;28;20045;-76
2022/11/29 10:47:49;;;;;;;37.67;20.95;;;;;;;;;;4970971;28;20041;-76
2022/11/29 10:50:20;;;;;;;35.55;21.52;;;;;;;;;;4969269;28;20073;-76
2022/11/29 10:52:45;;;;;;;41.78;23.38;;;;;;;;;;4970750;28;20046;-76
2022/11/29 10:55:14;;;;;;;37.70;21.80;;;;;;;;;;4971280;28;20043;-76
2022/11/29 10:58:10;;;;;;;36.40;20.55;;;;;;;;;;4965381;28;20524;-76
2022/11/29 11:00:56;;;;;;;37.47;21.60;;;;;;;;;;4963579;28;20100;-76
2022/11/29 11:03:38;;;;;;;36.40;22.10;;;;;;;;;;4969109;28;20031;-76
2022/11/29 11:06:15;;;;;;;33.78;20.95;;;;;;;;;;4970215;28;20039;-76
2022/11/29 11:08:44;;;;;;;38.17;20.08;;;;;;;;;;4963342;28;20249;-75
2022/11/29 11:11:11;;;;;;;40.70;23.10;;;;;;;;;;4970608;28;20034;-74
2022/11/29 11:13:39;;;;;;;32.72;21.85;;;;;;;;;;4969351;28;20030;-76
2022/11/29 11:16:15;;;;;;;31.83;22.52;;;;;;;;;;4970942;28;20471;-78
2022/11/29 11:18:42;;;;;;;33.65;20.92;;;;;;;;;;4966080;28;20062;-74
2022/11/29 11:21:14;;;;;;;35.28;21.73;;;;;;;;;;4970933;28;20049;-76
2022/11/29 11:23:55;;;;;;;32.40;22.88;;;;;;;;;;4969836;28;20533;-76
2022/11/29 11:26:22;;;;;;;29.50;20.85;;;;;;;;;;4968980;28;20454;-74
2022/11/29 11:29:00;;;;;;;31.60;20.08;;;;;;;;;;4970210;28;20026;-76
2022/11/29 11:31:35;;;;;;;28.65;20.48;;;;;;;;;;4965836;28;20070;-77
2022/11/29 11:34:25;;;;;;;28.70;18.75;;;;;;;;;;4966219;28;20046;-76
2022/11/29 11:37:18;;;;;;;28.50;19.20;;;;;;;;;;4968870;28;20031;-75
2022/11/29 11:39:48;;;;;;;26.35;19.85;;;;;;;;;;4970597;28;20030;-75
2022/11/29 11:42:37;;;;;;;26.90;19.42;;;;;;;;;;4970295;28;20501;-75
2022/11/29 11:45:03;;;;;;;27.05;19.25;;;;;;;;;;4962135;28;20570;-75
2022/11/29 11:47:31;;;;;;;23.40;18.92;;;;;;;;;;4970461;28;20066;-76
2022/11/29 11:50:03;;;;;;;28.10;19.42;;;;;;;;;;4970075;28;20038;-75
2022/11/29 11:52:38;;;;;;;24.13;19.33;;;;;;;;;;4969963;28;20049;-76
2022/11/29 11:55:29;;;;;;;24.70;18.75;;;;;;;;;;4963160;28;20126;-75
2022/11/29 11:58:03;;;;;;;24.23;18.60;;;;;;;;;;4969508;28;20418;-76
2022/11/29 12:00:44;;;;;;;22.50;19.50;;;;;;;;;;4967170;28;20538;-77
2022/11/29 12:03:33;;;;;;;23.17;18.27;;;;;;;;;;4966687;28;20089;-77
2022/11/29 12:06:05;;;;;;;22.13;19.63;;;;;;;;;;4967962;28;20050;-75
2022/11/29 12:08:32;;;;;;;22.48;19.30;;;;;;;;;;4988425;28;20089;-76
2022/11/29 12:11:06;;;;;;;32.83;20.88;;;;;;;;;;4967996;28;20039;-76
2022/11/29 12:13:34;;;;;;;25.33;18.27;;;;;;;;;;4967790;28;20109;-77
2022/11/29 12:16:08;;;;;;;27.17;18.80;;;;;;;;;;4970070;28;20070;-76
2022/11/29 12:18:43;;;;;;;26.95;18.05;;;;;;;;;;4966970;28;20042;-76
2022/11/29 12:21:16;;;;;;;22.38;17.67;;;;;;;;;;4968361;28;20478;-77
2022/11/29 12:23:48;;;;;;;24.50;17.40;;;;;;;;;;4964379;28;20065;-74
2022/11/29 12:26:24;;;;;;;21.92;16.85;;;;;;;;;;4981003;28;20250;-76
2022/11/29 12:28:51;;;;;;;20.45;16.25;;;;;;;;;;4966869;28;20076;-79
2022/11/29 12:31:35;;;;;;;19.15;16.80;;;;;;;;;;4969573;28;20038;-80
2022/11/29 12:34:23;;;;;;;18.67;15.57;;;;;;;;;;4970047;28;20043;-78
2022/11/29 12:37:24;;;;;;;19.83;16.05;;;;;;;;;;4964122;28;20546;-76
2022/11/29 12:39:58;;;;;;;20.05;16.23;;;;;;;;;;4964698;28;20042;-77
2022/11/29 12:42:38;;;;;;;23.58;17.10;;;;;;;;;;4967126;28;20049;-75
2022/11/29 12:45:25;;;;;;;20.77;15.85;;;;;;;;;;4990274;28;20054;-75
2022/11/29 12:48:32;;;;;;;20.95;17.00;;;;;;;;;;4965008;28;20043;-75
2022/11/29 12:51:04;;;;;;;20.75;16.65;;;;;;;;;;4967655;28;20561;-74
2022/11/29 12:53:41;;;;;;;22.23;18.35;;;;;;;;;;4963850;28;20582;-75
2022/11/29 12:56:35;;;;;;;20.85;15.93;;;;;;;;;;4965763;28;20051;-75
2022/11/29 12:59:19;;;;;;;20.65;18.02;;;;;;;;;;4965908;28;20049;-76
2022/11/29 13:02:38;;;;;;;23.15;16.70;;;;;;;;;;4966269;28;20129;-77
2022/11/29 13:05:33;;;;;;;20.80;17.40;;;;;;;;;;4969965;28;20053;-73
2022/11/29 13:08:30;;;;;;;19.73;16.95;;;;;;;;;;4966585;28;20576;-77
2022/11/29 13:11:20;;;;;;;20.77;16.85;;;;;;;;;;4967237;28;20054;-75
2022/11/29 13:14:06;;;;;;;20.80;16.70;;;;;;;;;;4962146;28;20039;-77
2022/11/29 13:16:51;;;;;;;17.88;15.68;;;;;;;;;;4965029;28;20118;-77
2022/11/29 13:19:57;;;;;;;21.83;16.42;;;;;;;;;;4965417;28;20089;-76
2022/11/29 13:22:43;;;;;;;20.17;15.52;;;;;;;;;;4939442;28;20102;-76
2022/11/29 13:25:20;;;;;;;20.05;15.07;;;;;;;;;;4967059;28;20084;-75
2022/11/29 13:28:19;;;;;;;21.75;16.63;;;;;;;;;;4967156;28;20046;-77
2022/11/29 13:30:45;;;;;;;22.77;17.10;;;;;;;;;;4961146;28;20045;-77
2022/11/29 13:33:23;;;;;;;20.25;15.82;;;;;;;;;;4962813;28;20042;-76
2022/11/29 13:36:07;;;;;;;20.98;17.33;;;;;;;;;;4967427;28;20035;-77
2022/11/29 13:38:40;;;;;;;21.77;16.23;;;;;;;;;;4962418;28;20035;-77
2022/11/29 13:41:33;;;;;;;21.88;17.27;;;;;;;;;;4964836;28;20054;-77
2022/11/29 13:44:26;;;;;;;18.73;15.60;;;;;;;;;;4991964;28;20054;-76
2022/11/29 13:47:06;;;;;;;23.10;17.45;;;;;;;;;;4964399;28;20035;-77
2022/11/29 13:49:55;;;;;;;17.88;15.98;;;;;;;;;;4963156;28;20679;-76
2022/11/29 13:52:32;;;;;;;19.08;16.25;;;;;;;;;;4966357;28;20030;-76
2022/11/29 13:55:22;;;;;;;21.70;16.15;;;;;;;;;;4970556;28;20034;-76
2022/11/29 13:58:09;;;;;;;21.88;15.70;;;;;;;;;;4965528;28;20133;-77
2022/11/29 14:00:43;;;;;;;20.85;16.10;;;;;;;;;;4970849;28;20049;-77
2022/11/29 14:03:20;;;;;;;20.00;16.10;;;;;;;;;;4970325;28;20256;-76
2022/11/29 14:05:49;;;;;;;23.35;16.13;;;;;;;;;;4964612;28;20043;-76
2022/11/29 14:08:29;;;;;;;23.25;16.45;;;;;;;;;;4966522;28;20062;-77
2022/11/29 14:11:14;;;;;;;19.92;16.02;;;;;;;;;;4970620;28;20046;-76
2022/11/29 14:14:02;;;;;;;21.92;15.90;;;;;;;;;;4969752;28;20066;-76
2022/11/29 14:16:36;;;;;;;19.33;15.98;;;;;;;;;;4965949;28;20034;-77
2022/11/29 14:19:08;;;;;;;18.23;15.10;;;;;;;;;;4969208;28;20046;-76
2022/11/29 14:22:01;;;;;;;18.58;14.90;;;;;;;;;;4969134;28;20031;-76
2022/11/29 14:24:36;;;;;;;23.27;18.42;;;;;;;;;;4968953;28;20055;-76
2022/11/29 14:27:05;;;;;;;21.23;16.30;;;;;;;;;;4966580;28;20050;-76
2022/11/29 14:29:52;;;;;;;21.13;16.63;;;;;;;;;;4970663;28;20468;-77
2022/11/29 14:32:36;;;;;;;24.50;17.55;;;;;;;;;;4969483;28;20034;-76
2022/11/29 14:35:01;;;;;;;21.38;19.05;;;;;;;;;;4968871;28;20039;-76
2022/11/29 14:37:50;;;;;;;23.67;17.65;;;;;;;;;;4970067;28;20037;-76
2022/11/29 14:40:35;;;;;;;23.50;17.60;;;;;;;;;;4969154;28;20035;-76
2022/11/29 14:43:02;;;;;;;23.52;17.98;;;;;;;;;;4966548;28;20038;-76
2022/11/29 14:45:31;;;;;;;19.60;16.40;;;;;;;;;;4969994;28;20043;-76
2022/11/29 14:47:57;;;;;;;23.20;16.27;;;;;;;;;;4969839;28;20141;-76
2022/11/29 14:50:35;;;;;;;25.45;17.98;;;;;;;;;;4964526;28;20035;-76
2022/11/29 14:53:03;;;;;;;23.92;18.48;;;;;;;;;;4965797;28;20038;-75
2022/11/29 14:55:41;;;;;;;24.02;17.85;;;;;;;;;;4969897;28;20510;-76
2022/11/29 14:58:19;;;;;;;23.30;17.10;;;;;;;;;;4968832;28;20125;-76
2022/11/29 15:00:48;;;;;;;25.35;16.92;;;;;;;;;;4968021;28;20532;-76
2022/11/29 15:03:31;;;;;;;26.90;18.88;;;;;;;;;;4966483;28;20502;-75
2022/11/29 15:06:14;;;;;;;22.77;16.80;;;;;;;;;;4969537;28;20057;-75
2022/11/29 15:09:15;;;;;;;20.30;17.55;;;;;;;;;;4965274;28;20052;-75
2022/11/29 15:11:55;;;;;;;26.88;18.25;;;;;;;;;;4968275;28;20046;-76
2022/11/29 15:14:38;;;;;;;27.83;18.80;;;;;;;;;;4987626;28;20035;-76
2022/11/29 15:17:29;;;;;;;22.63;16.83;;;;;;;;;;4968617;28;20035;-79
2022/11/29 15:20:17;;;;;;;22.52;17.80;;;;;;;;;;4971190;28;20054;-77
2022/11/29 15:22:53;;;;;;;19.85;17.02;;;;;;;;;;4965626;28;20399;-76
2022/11/29 15:25:25;;;;;;;22.02;16.73;;;;;;;;;;4971394;28;20423;-76